sensor_id;sensor_type;location;lat;lon;timestamp;P1;durP1;ratioP1;P2;durP2;ratioP2
69057;SDS011;56128;37.534;-122.308;2024-03-23T00:52:50;5.85;;;1.30;;
69057;SDS011;56128;37.534;-122.308;2024-03-23T00:55:17;4.38;;;1.38;;
69057;SDS011;56128;37.534;-122.308;2024-03-23T00:57:43;4.63;;;1.40;;
69057;SDS011;56128;37.534;-122.308;2024-03-23T01:00:09;3.90;;;1.23;;
69057;SDS011;56128;37.534;-122.308;2024-03-23T01:02:36;2.50;;;1.10;;
69057;SDS011;56128;37.534;-122.308;2024-03-23T01:05:08;5.22;;;1.23;;
69057;SDS011;56128;37.534;-122.308;2024-03-23T01:07:36;9.23;;;1.50;;
69057;SDS011;56128;37.534;-122.308;2024-03-23T01:10:03;4.40;;;1.23;;
69057;SDS011;56128;37.534;-122.308;2024-03-23T01:12:30;6.22;;;1.60;;
69057;SDS011;56128;37.534;-122.308;2024-03-23T01:15:02;5.15;;;1.40;;
69057;SDS011;56128;37.534;-122.308;2024-03-23T01:17:29;3.00;;;1.30;;
69057;SDS011;56128;37.534;-122.308;2024-03-23T01:19:57;5.15;;;1.20;;
69057;SDS011;56128;37.534;-122.308;2024-03-23T01:22:24;5.97;;;1.40;;
69057;SDS011;56128;37.534;-122.308;2024-03-23T01:24:52;2.92;;;1.10;;
69057;SDS011;56128;37.534;-122.308;2024-03-23T01:27:19;6.57;;;1.13;;
69057;SDS011;56128;37.534;-122.308;2024-03-23T01:29:46;5.55;;;1.58;;
69057;SDS011;56128;37.534;-122.308;2024-03-23T01:32:13;2.90;;;1.15;;
69057;SDS011;56128;37.534;-122.308;2024-03-23T01:34:40;4.68;;;1.30;;
69057;SDS011;56128;37.534;-122.308;2024-03-23T01:37:07;4.00;;;1.30;;
69057;SDS011;56128;37.534;-122.308;2024-03-23T01:39:34;5.13;;;1.35;;
69057;SDS011;56128;37.534;-122.308;2024-03-23T01:42:03;3.95;;;1.77;;
69057;SDS011;56128;37.534;-122.308;2024-03-23T01:44:30;3.95;;;1.33;;
69057;SDS011;56128;37.534;-122.308;2024-03-23T01:46:57;4.72;;;1.60;;
69057;SDS011;56128;37.534;-122.308;2024-03-23T01:49:25;3.72;;;0.98;;
69057;SDS011;56128;37.534;-122.308;2024-03-23T01:51:52;4.50;;;1.45;;
69057;SDS011;56128;37.534;-122.308;2024-03-23T01:54:19;3.33;;;1.48;;
69057;SDS011;56128;37.534;-122.308;2024-03-23T01:56:49;2.72;;;1.13;;
69057;SDS011;56128;37.534;-122.308;2024-03-23T01:59:16;5.88;;;1.42;;
69057;SDS011;56128;37.534;-122.308;2024-03-23T02:01:45;4.63;;;1.23;;
69057;SDS011;56128;37.534;-122.308;2024-03-23T02:04:12;2.80;;;1.10;;
69057;SDS011;56128;37.534;-122.308;2024-03-23T02:06:40;6.40;;;1.75;;
69057;SDS011;56128;37.534;-122.308;2024-03-23T02:09:08;4.95;;;1.88;;
69057;SDS011;56128;37.534;-122.308;2024-03-23T02:11:35;3.45;;;1.20;;
69057;SDS011;56128;37.534;-122.308;2024-03-23T02:14:02;2.90;;;1.00;;
69057;SDS011;56128;37.534;-122.308;2024-03-23T02:16:28;3.42;;;1.20;;
69057;SDS011;56128;37.534;-122.308;2024-03-23T02:18:55;3.45;;;1.00;;
69057;SDS011;56128;37.534;-122.308;2024-03-23T02:21:24;3.50;;;1.30;;
69057;SDS011;56128;37.534;-122.308;2024-03-23T02:23:53;5.57;;;1.30;;
69057;SDS011;56128;37.534;-122.308;2024-03-23T02:26:21;7.00;;;1.38;;
69057;SDS011;56128;37.534;-122.308;2024-03-23T02:28:48;2.53;;;1.15;;
69057;SDS011;56128;37.534;-122.308;2024-03-23T02:31:14;3.00;;;1.50;;
69057;SDS011;56128;37.534;-122.308;2024-03-23T02:33:43;3.28;;;1.10;;
69057;SDS011;56128;37.534;-122.308;2024-03-23T02:36:09;3.05;;;0.80;;
69057;SDS011;56128;37.534;-122.308;2024-03-23T02:38:36;1.08;;;0.63;;
69057;SDS011;56128;37.534;-122.308;2024-03-23T02:41:03;1.73;;;1.10;;
69057;SDS011;56128;37.534;-122.308;2024-03-23T02:43:33;1.33;;;0.70;;
69057;SDS011;56128;37.534;-122.308;2024-03-23T02:46:00;2.15;;;0.60;;
69057;SDS011;56128;37.534;-122.308;2024-03-23T02:48:27;0.98;;;0.45;;
69057;SDS011;56128;37.534;-122.308;2024-03-23T02:50:54;3.60;;;0.70;;
69057;SDS011;56128;37.534;-122.308;2024-03-23T02:53:21;1.00;;;0.57;;
69057;SDS011;56128;37.534;-122.308;2024-03-23T02:55:48;0.95;;;0.60;;
69057;SDS011;56128;37.534;-122.308;2024-03-23T02:58:15;2.80;;;0.55;;
69057;SDS011;56128;37.534;-122.308;2024-03-23T03:00:42;1.02;;;0.50;;
69057;SDS011;56128;37.534;-122.308;2024-03-23T03:03:09;2.28;;;0.73;;
69057;SDS011;56128;37.534;-122.308;2024-03-23T03:05:36;1.77;;;0.80;;
69057;SDS011;56128;37.534;-122.308;2024-03-23T03:08:03;2.42;;;0.98;;
69057;SDS011;56128;37.534;-122.308;2024-03-23T03:10:30;4.55;;;1.20;;
69057;SDS011;56128;37.534;-122.308;2024-03-23T03:13:00;2.35;;;1.27;;
69057;SDS011;56128;37.534;-122.308;2024-03-23T03:15:27;2.95;;;0.90;;
69057;SDS011;56128;37.534;-122.308;2024-03-23T03:17:54;2.47;;;1.20;;
69057;SDS011;56128;37.534;-122.308;2024-03-23T03:20:24;1.85;;;0.90;;
69057;SDS011;56128;37.534;-122.308;2024-03-23T03:22:51;1.75;;;0.82;;
69057;SDS011;56128;37.534;-122.308;2024-03-23T03:25:20;2.30;;;0.75;;
69057;SDS011;56128;37.534;-122.308;2024-03-23T03:27:47;2.03;;;0.90;;
69057;SDS011;56128;37.534;-122.308;2024-03-23T03:30:14;3.03;;;0.90;;
69057;SDS011;56128;37.534;-122.308;2024-03-23T03:32:41;2.15;;;1.00;;
69057;SDS011;56128;37.534;-122.308;2024-03-23T03:35:08;2.30;;;1.10;;
69057;SDS011;56128;37.534;-122.308;2024-03-23T03:37:35;4.47;;;1.00;;
69057;SDS011;56128;37.534;-122.308;2024-03-23T03:40:02;2.13;;;0.93;;
69057;SDS011;56128;37.534;-122.308;2024-03-23T03:42:29;3.22;;;0.82;;
69057;SDS011;56128;37.534;-122.308;2024-03-23T03:44:56;5.07;;;1.20;;
69057;SDS011;56128;37.534;-122.308;2024-03-23T03:47:22;5.00;;;1.00;;
69057;SDS011;56128;37.534;-122.308;2024-03-23T03:49:49;3.35;;;1.20;;
69057;SDS011;56128;37.534;-122.308;2024-03-23T03:52:16;2.78;;;0.85;;
69057;SDS011;56128;37.534;-122.308;2024-03-23T03:54:43;4.25;;;1.33;;
69057;SDS011;56128;37.534;-122.308;2024-03-23T03:57:10;6.70;;;1.30;;
69057;SDS011;56128;37.534;-122.308;2024-03-23T03:59:36;7.13;;;1.38;;
69057;SDS011;56128;37.534;-122.308;2024-03-23T04:02:03;4.68;;;1.33;;
69057;SDS011;56128;37.534;-122.308;2024-03-23T04:04:30;5.25;;;1.50;;
69057;SDS011;56128;37.534;-122.308;2024-03-23T04:07:01;7.82;;;1.48;;
69057;SDS011;56128;37.534;-122.308;2024-03-23T04:09:27;8.32;;;1.70;;
69057;SDS011;56128;37.534;-122.308;2024-03-23T04:11:55;4.13;;;1.50;;
69057;SDS011;56128;37.534;-122.308;2024-03-23T04:14:22;6.93;;;1.40;;
69057;SDS011;56128;37.534;-122.308;2024-03-23T04:16:48;5.45;;;1.27;;
69057;SDS011;56128;37.534;-122.308;2024-03-23T04:19:15;8.07;;;1.73;;
69057;SDS011;56128;37.534;-122.308;2024-03-23T04:21:41;5.70;;;1.35;;
69057;SDS011;56128;37.534;-122.308;2024-03-23T04:24:08;5.68;;;1.10;;
69057;SDS011;56128;37.534;-122.308;2024-03-23T04:26:43;6.03;;;1.45;;
69057;SDS011;56128;37.534;-122.308;2024-03-23T04:29:09;7.43;;;1.70;;
69057;SDS011;56128;37.534;-122.308;2024-03-23T04:31:35;2.78;;;1.10;;
69057;SDS011;56128;37.534;-122.308;2024-03-23T04:34:01;6.85;;;1.70;;
69057;SDS011;56128;37.534;-122.308;2024-03-23T04:36:28;4.47;;;1.58;;
69057;SDS011;56128;37.534;-122.308;2024-03-23T04:38:54;3.72;;;1.40;;
69057;SDS011;56128;37.534;-122.308;2024-03-23T04:41:20;5.75;;;1.25;;
69057;SDS011;56128;37.534;-122.308;2024-03-23T04:43:46;7.15;;;1.50;;
69057;SDS011;56128;37.534;-122.308;2024-03-23T04:46:13;6.30;;;1.50;;
69057;SDS011;56128;37.534;-122.308;2024-03-23T04:48:39;9.23;;;1.70;;
69057;SDS011;56128;37.534;-122.308;2024-03-23T04:51:05;9.55;;;1.70;;
69057;SDS011;56128;37.534;-122.308;2024-03-23T04:53:31;4.07;;;1.60;;
69057;SDS011;56128;37.534;-122.308;2024-03-23T04:55:58;6.55;;;1.65;;
69057;SDS011;56128;37.534;-122.308;2024-03-23T04:58:24;7.43;;;1.88;;
69057;SDS011;56128;37.534;-122.308;2024-03-23T05:00:54;8.52;;;2.50;;
69057;SDS011;56128;37.534;-122.308;2024-03-23T05:03:20;3.85;;;1.60;;
69057;SDS011;56128;37.534;-122.308;2024-03-23T05:05:47;5.18;;;1.45;;
69057;SDS011;56128;37.534;-122.308;2024-03-23T05:08:14;10.02;;;1.70;;
69057;SDS011;56128;37.534;-122.308;2024-03-23T05:10:42;4.70;;;1.67;;
69057;SDS011;56128;37.534;-122.308;2024-03-23T05:13:09;6.75;;;1.73;;
69057;SDS011;56128;37.534;-122.308;2024-03-23T05:15:35;4.97;;;1.55;;
69057;SDS011;56128;37.534;-122.308;2024-03-23T05:18:01;7.38;;;1.60;;
69057;SDS011;56128;37.534;-122.308;2024-03-23T05:20:28;6.53;;;1.60;;
69057;SDS011;56128;37.534;-122.308;2024-03-23T05:22:54;7.75;;;1.70;;
69057;SDS011;56128;37.534;-122.308;2024-03-23T05:25:21;7.30;;;1.50;;
69057;SDS011;56128;37.534;-122.308;2024-03-23T05:27:48;4.40;;;1.42;;
69057;SDS011;56128;37.534;-122.308;2024-03-23T05:30:15;5.47;;;1.50;;
69057;SDS011;56128;37.534;-122.308;2024-03-23T05:32:41;7.03;;;1.83;;
69057;SDS011;56128;37.534;-122.308;2024-03-23T05:35:08;3.90;;;1.58;;
69057;SDS011;56128;37.534;-122.308;2024-03-23T05:37:35;10.05;;;1.83;;
69057;SDS011;56128;37.534;-122.308;2024-03-23T05:40:02;6.28;;;1.80;;
69057;SDS011;56128;37.534;-122.308;2024-03-23T05:42:29;5.45;;;1.50;;
69057;SDS011;56128;37.534;-122.308;2024-03-23T05:44:55;5.65;;;1.63;;
69057;SDS011;56128;37.534;-122.308;2024-03-23T05:47:21;8.25;;;1.40;;
69057;SDS011;56128;37.534;-122.308;2024-03-23T05:49:47;5.20;;;1.40;;
69057;SDS011;56128;37.534;-122.308;2024-03-23T05:52:14;8.23;;;1.60;;
69057;SDS011;56128;37.534;-122.308;2024-03-23T05:54:40;9.43;;;1.63;;
69057;SDS011;56128;37.534;-122.308;2024-03-23T05:57:08;6.47;;;1.50;;
69057;SDS011;56128;37.534;-122.308;2024-03-23T05:59:34;9.65;;;1.85;;
69057;SDS011;56128;37.534;-122.308;2024-03-23T06:02:01;12.80;;;1.88;;
69057;SDS011;56128;37.534;-122.308;2024-03-23T06:04:27;10.57;;;1.67;;
69057;SDS011;56128;37.534;-122.308;2024-03-23T06:06:53;5.63;;;1.55;;
69057;SDS011;56128;37.534;-122.308;2024-03-23T06:09:19;6.40;;;1.75;;
69057;SDS011;56128;37.534;-122.308;2024-03-23T06:11:45;10.63;;;1.80;;
69057;SDS011;56128;37.534;-122.308;2024-03-23T06:14:11;7.32;;;1.65;;
69057;SDS011;56128;37.534;-122.308;2024-03-23T06:16:37;7.78;;;1.92;;
69057;SDS011;56128;37.534;-122.308;2024-03-23T06:19:03;8.50;;;1.83;;
69057;SDS011;56128;37.534;-122.308;2024-03-23T06:21:32;7.20;;;1.67;;
69057;SDS011;56128;37.534;-122.308;2024-03-23T06:23:58;11.80;;;2.40;;
69057;SDS011;56128;37.534;-122.308;2024-03-23T06:26:25;9.75;;;2.03;;
69057;SDS011;56128;37.534;-122.308;2024-03-23T06:28:51;14.65;;;1.98;;
69057;SDS011;56128;37.534;-122.308;2024-03-23T06:31:17;8.90;;;2.03;;
69057;SDS011;56128;37.534;-122.308;2024-03-23T06:33:43;11.43;;;2.20;;
69057;SDS011;56128;37.534;-122.308;2024-03-23T06:36:09;13.88;;;2.45;;
69057;SDS011;56128;37.534;-122.308;2024-03-23T06:38:37;14.40;;;2.42;;
69057;SDS011;56128;37.534;-122.308;2024-03-23T06:41:04;6.95;;;2.30;;
69057;SDS011;56128;37.534;-122.308;2024-03-23T06:43:30;12.23;;;2.15;;
69057;SDS011;56128;37.534;-122.308;2024-03-23T06:45:57;11.07;;;1.95;;
69057;SDS011;56128;37.534;-122.308;2024-03-23T06:48:23;11.95;;;2.30;;
69057;SDS011;56128;37.534;-122.308;2024-03-23T06:50:49;14.38;;;3.28;;
69057;SDS011;56128;37.534;-122.308;2024-03-23T06:53:20;19.60;;;3.38;;
69057;SDS011;56128;37.534;-122.308;2024-03-23T06:55:50;18.00;;;3.10;;
69057;SDS011;56128;37.534;-122.308;2024-03-23T06:58:18;25.38;;;3.50;;
69057;SDS011;56128;37.534;-122.308;2024-03-23T07:00:48;17.75;;;3.03;;
69057;SDS011;56128;37.534;-122.308;2024-03-23T07:03:14;23.40;;;3.42;;
69057;SDS011;56128;37.534;-122.308;2024-03-23T07:05:41;24.50;;;3.10;;
69057;SDS011;56128;37.534;-122.308;2024-03-23T07:08:08;15.02;;;2.63;;
69057;SDS011;56128;37.534;-122.308;2024-03-23T07:10:34;22.27;;;3.20;;
69057;SDS011;56128;37.534;-122.308;2024-03-23T07:13:01;18.60;;;2.80;;
69057;SDS011;56128;37.534;-122.308;2024-03-23T07:15:27;14.25;;;2.90;;
69057;SDS011;56128;37.534;-122.308;2024-03-23T07:17:53;20.02;;;3.10;;
69057;SDS011;56128;37.534;-122.308;2024-03-23T07:20:19;18.10;;;3.05;;
69057;SDS011;56128;37.534;-122.308;2024-03-23T07:22:45;23.05;;;2.70;;
69057;SDS011;56128;37.534;-122.308;2024-03-23T07:25:12;15.73;;;2.70;;
69057;SDS011;56128;37.534;-122.308;2024-03-23T07:27:39;23.05;;;2.97;;
69057;SDS011;56128;37.534;-122.308;2024-03-23T07:30:05;16.38;;;3.15;;
69057;SDS011;56128;37.534;-122.308;2024-03-23T07:32:32;22.77;;;3.00;;
69057;SDS011;56128;37.534;-122.308;2024-03-23T07:34:59;15.70;;;2.70;;
69057;SDS011;56128;37.534;-122.308;2024-03-23T07:37:25;23.73;;;2.85;;
69057;SDS011;56128;37.534;-122.308;2024-03-23T07:39:51;20.58;;;2.70;;
69057;SDS011;56128;37.534;-122.308;2024-03-23T07:42:17;15.07;;;2.65;;
69057;SDS011;56128;37.534;-122.308;2024-03-23T07:44:43;14.85;;;2.85;;
69057;SDS011;56128;37.534;-122.308;2024-03-23T07:47:09;22.15;;;2.80;;
69057;SDS011;56128;37.534;-122.308;2024-03-23T07:49:36;20.63;;;2.67;;
69057;SDS011;56128;37.534;-122.308;2024-03-23T07:52:02;30.33;;;3.20;;
69057;SDS011;56128;37.534;-122.308;2024-03-23T07:54:29;17.00;;;2.60;;
69057;SDS011;56128;37.534;-122.308;2024-03-23T07:56:55;17.88;;;2.80;;
69057;SDS011;56128;37.534;-122.308;2024-03-23T07:59:21;14.48;;;2.67;;
69057;SDS011;56128;37.534;-122.308;2024-03-23T08:01:47;20.30;;;3.42;;
69057;SDS011;56128;37.534;-122.308;2024-03-23T08:04:13;22.08;;;3.63;;
69057;SDS011;56128;37.534;-122.308;2024-03-23T08:06:39;16.10;;;3.05;;
69057;SDS011;56128;37.534;-122.308;2024-03-23T08:09:05;13.93;;;2.72;;
69057;SDS011;56128;37.534;-122.308;2024-03-23T08:11:31;16.73;;;2.65;;
69057;SDS011;56128;37.534;-122.308;2024-03-23T08:14:01;14.70;;;3.05;;
69057;SDS011;56128;37.534;-122.308;2024-03-23T08:16:27;23.70;;;2.67;;
69057;SDS011;56128;37.534;-122.308;2024-03-23T08:18:54;17.65;;;2.75;;
69057;SDS011;56128;37.534;-122.308;2024-03-23T08:21:23;16.77;;;2.38;;
69057;SDS011;56128;37.534;-122.308;2024-03-23T08:23:51;19.80;;;2.80;;
69057;SDS011;56128;37.534;-122.308;2024-03-23T08:26:17;18.08;;;2.53;;
69057;SDS011;56128;37.534;-122.308;2024-03-23T08:28:43;16.35;;;2.67;;
69057;SDS011;56128;37.534;-122.308;2024-03-23T08:31:10;20.25;;;2.90;;
69057;SDS011;56128;37.534;-122.308;2024-03-23T08:33:37;21.95;;;2.70;;
69057;SDS011;56128;37.534;-122.308;2024-03-23T08:36:08;20.40;;;2.83;;
69057;SDS011;56128;37.534;-122.308;2024-03-23T08:38:37;28.75;;;2.92;;
69057;SDS011;56128;37.534;-122.308;2024-03-23T08:41:04;17.08;;;3.00;;
69057;SDS011;56128;37.534;-122.308;2024-03-23T08:43:32;30.20;;;3.20;;
69057;SDS011;56128;37.534;-122.308;2024-03-23T08:46:04;14.45;;;2.63;;
69057;SDS011;56128;37.534;-122.308;2024-03-23T08:48:37;32.80;;;3.03;;
69057;SDS011;56128;37.534;-122.308;2024-03-23T08:51:05;17.73;;;2.63;;
69057;SDS011;56128;37.534;-122.308;2024-03-23T08:53:33;19.13;;;2.65;;
69057;SDS011;56128;37.534;-122.308;2024-03-23T08:56:00;21.65;;;2.70;;
69057;SDS011;56128;37.534;-122.308;2024-03-23T08:58:28;18.88;;;2.53;;
69057;SDS011;56128;37.534;-122.308;2024-03-23T09:00:55;16.52;;;2.75;;
69057;SDS011;56128;37.534;-122.308;2024-03-23T09:03:23;20.63;;;3.17;;
69057;SDS011;56128;37.534;-122.308;2024-03-23T09:05:50;23.20;;;3.47;;
69057;SDS011;56128;37.534;-122.308;2024-03-23T09:08:17;17.27;;;2.47;;
69057;SDS011;56128;37.534;-122.308;2024-03-23T09:10:43;25.15;;;2.95;;
69057;SDS011;56128;37.534;-122.308;2024-03-23T09:13:10;21.05;;;3.70;;
69057;SDS011;56128;37.534;-122.308;2024-03-23T09:15:37;14.95;;;3.00;;
69057;SDS011;56128;37.534;-122.308;2024-03-23T09:18:10;19.45;;;2.28;;
69057;SDS011;56128;37.534;-122.308;2024-03-23T09:20:36;23.33;;;2.90;;
69057;SDS011;56128;37.534;-122.308;2024-03-23T09:23:03;27.40;;;3.55;;
69057;SDS011;56128;37.534;-122.308;2024-03-23T09:25:29;17.13;;;2.80;;
69057;SDS011;56128;37.534;-122.308;2024-03-23T09:27:55;20.30;;;2.60;;
69057;SDS011;56128;37.534;-122.308;2024-03-23T09:30:21;22.50;;;2.83;;
69057;SDS011;56128;37.534;-122.308;2024-03-23T09:32:47;25.17;;;3.15;;
69057;SDS011;56128;37.534;-122.308;2024-03-23T09:35:14;25.90;;;3.50;;
69057;SDS011;56128;37.534;-122.308;2024-03-23T09:37:40;20.13;;;3.05;;
69057;SDS011;56128;37.534;-122.308;2024-03-23T09:40:09;23.10;;;3.42;;
69057;SDS011;56128;37.534;-122.308;2024-03-23T09:42:36;26.58;;;3.05;;
69057;SDS011;56128;37.534;-122.308;2024-03-23T09:45:06;23.30;;;3.42;;
69057;SDS011;56128;37.534;-122.308;2024-03-23T09:47:39;21.95;;;3.00;;
69057;SDS011;56128;37.534;-122.308;2024-03-23T09:50:05;21.40;;;3.28;;
69057;SDS011;56128;37.534;-122.308;2024-03-23T09:52:34;24.88;;;3.08;;
69057;SDS011;56128;37.534;-122.308;2024-03-23T09:55:00;24.35;;;4.53;;
69057;SDS011;56128;37.534;-122.308;2024-03-23T09:57:27;22.15;;;2.95;;
69057;SDS011;56128;37.534;-122.308;2024-03-23T09:59:53;17.42;;;2.95;;
69057;SDS011;56128;37.534;-122.308;2024-03-23T10:02:20;26.65;;;3.15;;
69057;SDS011;56128;37.534;-122.308;2024-03-23T10:04:47;26.30;;;3.35;;
69057;SDS011;56128;37.534;-122.308;2024-03-23T10:07:14;18.70;;;2.97;;
69057;SDS011;56128;37.534;-122.308;2024-03-23T10:09:44;22.67;;;3.33;;
69057;SDS011;56128;37.534;-122.308;2024-03-23T10:12:16;20.92;;;3.13;;
69057;SDS011;56128;37.534;-122.308;2024-03-23T10:14:44;21.25;;;3.40;;
69057;SDS011;56128;37.534;-122.308;2024-03-23T10:17:17;22.42;;;3.30;;
69057;SDS011;56128;37.534;-122.308;2024-03-23T10:19:51;17.63;;;2.97;;
69057;SDS011;56128;37.534;-122.308;2024-03-23T10:22:19;31.25;;;4.18;;
69057;SDS011;56128;37.534;-122.308;2024-03-23T10:24:46;35.97;;;4.25;;
69057;SDS011;56128;37.534;-122.308;2024-03-23T10:27:19;34.15;;;4.60;;
69057;SDS011;56128;37.534;-122.308;2024-03-23T10:29:49;33.97;;;4.40;;
69057;SDS011;56128;37.534;-122.308;2024-03-23T10:32:16;29.10;;;4.32;;
69057;SDS011;56128;37.534;-122.308;2024-03-23T10:34:43;22.25;;;4.10;;
69057;SDS011;56128;37.534;-122.308;2024-03-23T10:37:10;31.05;;;3.90;;
69057;SDS011;56128;37.534;-122.308;2024-03-23T10:39:38;21.45;;;2.78;;
69057;SDS011;56128;37.534;-122.308;2024-03-23T10:42:06;21.63;;;3.15;;
69057;SDS011;56128;37.534;-122.308;2024-03-23T10:44:34;21.45;;;3.50;;
69057;SDS011;56128;37.534;-122.308;2024-03-23T10:47:00;19.95;;;2.85;;
69057;SDS011;56128;37.534;-122.308;2024-03-23T10:49:31;26.25;;;3.85;;
69057;SDS011;56128;37.534;-122.308;2024-03-23T10:52:07;25.73;;;2.92;;
69057;SDS011;56128;37.534;-122.308;2024-03-23T10:54:33;22.13;;;2.97;;
69057;SDS011;56128;37.534;-122.308;2024-03-23T10:57:02;20.80;;;3.25;;
69057;SDS011;56128;37.534;-122.308;2024-03-23T10:59:33;23.75;;;3.13;;
69057;SDS011;56128;37.534;-122.308;2024-03-23T11:02:01;17.00;;;3.65;;
69057;SDS011;56128;37.534;-122.308;2024-03-23T11:04:30;29.20;;;3.53;;
69057;SDS011;56128;37.534;-122.308;2024-03-23T11:06:57;17.65;;;3.03;;
69057;SDS011;56128;37.534;-122.308;2024-03-23T11:09:40;23.48;;;3.33;;
69057;SDS011;56128;37.534;-122.308;2024-03-23T11:17:31;26.15;;;3.58;;
69057;SDS011;56128;37.534;-122.308;2024-03-23T11:22:42;27.27;;;3.50;;
69057;SDS011;56128;37.534;-122.308;2024-03-23T11:25:19;25.85;;;3.40;;
69057;SDS011;56128;37.534;-122.308;2024-03-23T11:27:46;19.40;;;3.22;;
69057;SDS011;56128;37.534;-122.308;2024-03-23T11:30:20;33.15;;;3.83;;
69057;SDS011;56128;37.534;-122.308;2024-03-23T11:32:52;22.08;;;3.53;;
69057;SDS011;56128;37.534;-122.308;2024-03-23T11:35:30;38.42;;;4.68;;
69057;SDS011;56128;37.534;-122.308;2024-03-23T11:38:12;29.35;;;3.35;;
69057;SDS011;56128;37.534;-122.308;2024-03-23T11:40:41;25.58;;;4.50;;
69057;SDS011;56128;37.534;-122.308;2024-03-23T11:43:17;35.78;;;3.85;;
69057;SDS011;56128;37.534;-122.308;2024-03-23T11:45:45;32.17;;;4.30;;
69057;SDS011;56128;37.534;-122.308;2024-03-23T11:48:16;28.42;;;3.70;;
69057;SDS011;56128;37.534;-122.308;2024-03-23T11:50:44;29.60;;;3.03;;
69057;SDS011;56128;37.534;-122.308;2024-03-23T11:53:22;24.73;;;3.30;;
69057;SDS011;56128;37.534;-122.308;2024-03-23T11:58:17;21.90;;;3.30;;
69057;SDS011;56128;37.534;-122.308;2024-03-23T12:03:24;22.55;;;2.83;;
69057;SDS011;56128;37.534;-122.308;2024-03-23T12:05:58;25.13;;;4.07;;
69057;SDS011;56128;37.534;-122.308;2024-03-23T12:08:29;19.10;;;2.75;;
69057;SDS011;56128;37.534;-122.308;2024-03-23T12:11:06;22.77;;;3.35;;
69057;SDS011;56128;37.534;-122.308;2024-03-23T12:13:40;16.42;;;2.97;;
69057;SDS011;56128;37.534;-122.308;2024-03-23T12:18:47;22.73;;;3.35;;
69057;SDS011;56128;37.534;-122.308;2024-03-23T12:21:17;25.50;;;3.58;;
69057;SDS011;56128;37.534;-122.308;2024-03-23T12:23:44;33.13;;;3.42;;
69057;SDS011;56128;37.534;-122.308;2024-03-23T12:26:12;28.15;;;3.30;;
69057;SDS011;56128;37.534;-122.308;2024-03-23T12:28:38;22.90;;;3.20;;
69057;SDS011;56128;37.534;-122.308;2024-03-23T12:31:05;24.20;;;2.92;;
69057;SDS011;56128;37.534;-122.308;2024-03-23T12:33:31;19.08;;;2.85;;
69057;SDS011;56128;37.534;-122.308;2024-03-23T12:35:57;21.25;;;2.60;;
69057;SDS011;56128;37.534;-122.308;2024-03-23T12:38:23;22.77;;;2.85;;
69057;SDS011;56128;37.534;-122.308;2024-03-23T12:40:49;29.20;;;2.90;;
69057;SDS011;56128;37.534;-122.308;2024-03-23T12:43:16;25.00;;;2.78;;
69057;SDS011;56128;37.534;-122.308;2024-03-23T12:45:46;19.70;;;2.58;;
69057;SDS011;56128;37.534;-122.308;2024-03-23T12:48:13;26.90;;;3.58;;
69057;SDS011;56128;37.534;-122.308;2024-03-23T12:50:39;15.77;;;2.53;;
69057;SDS011;56128;37.534;-122.308;2024-03-23T12:53:05;22.90;;;2.80;;
69057;SDS011;56128;37.534;-122.308;2024-03-23T12:55:31;27.90;;;2.92;;
69057;SDS011;56128;37.534;-122.308;2024-03-23T12:58:00;86.97;;;7.90;;
69057;SDS011;56128;37.534;-122.308;2024-03-23T13:00:26;22.52;;;3.15;;
69057;SDS011;56128;37.534;-122.308;2024-03-23T13:02:52;23.27;;;3.58;;
69057;SDS011;56128;37.534;-122.308;2024-03-23T13:05:18;28.95;;;3.53;;
69057;SDS011;56128;37.534;-122.308;2024-03-23T13:07:44;24.25;;;3.85;;
69057;SDS011;56128;37.534;-122.308;2024-03-23T13:10:10;27.45;;;3.85;;
69057;SDS011;56128;37.534;-122.308;2024-03-23T13:12:36;21.98;;;3.83;;
69057;SDS011;56128;37.534;-122.308;2024-03-23T13:15:03;23.48;;;3.97;;
69057;SDS011;56128;37.534;-122.308;2024-03-23T13:17:29;31.08;;;3.70;;
69057;SDS011;56128;37.534;-122.308;2024-03-23T13:19:56;22.25;;;3.60;;
69057;SDS011;56128;37.534;-122.308;2024-03-23T13:22:22;17.98;;;3.25;;
69057;SDS011;56128;37.534;-122.308;2024-03-23T13:24:48;20.38;;;3.22;;
69057;SDS011;56128;37.534;-122.308;2024-03-23T13:27:15;26.73;;;3.05;;
69057;SDS011;56128;37.534;-122.308;2024-03-23T13:29:41;27.92;;;3.10;;
69057;SDS011;56128;37.534;-122.308;2024-03-23T13:32:08;23.98;;;3.22;;
69057;SDS011;56128;37.534;-122.308;2024-03-23T13:34:34;15.52;;;3.15;;
69057;SDS011;56128;37.534;-122.308;2024-03-23T13:37:00;19.00;;;3.13;;
69057;SDS011;56128;37.534;-122.308;2024-03-23T13:39:27;24.27;;;2.78;;
69057;SDS011;56128;37.534;-122.308;2024-03-23T13:41:53;18.75;;;2.80;;
69057;SDS011;56128;37.534;-122.308;2024-03-23T13:44:21;25.20;;;2.72;;
69057;SDS011;56128;37.534;-122.308;2024-03-23T13:46:47;18.67;;;3.00;;
69057;SDS011;56128;37.534;-122.308;2024-03-23T13:49:26;19.75;;;2.83;;
69057;SDS011;56128;37.534;-122.308;2024-03-23T13:51:59;23.92;;;2.88;;
69057;SDS011;56128;37.534;-122.308;2024-03-23T13:54:26;20.30;;;2.85;;
69057;SDS011;56128;37.534;-122.308;2024-03-23T13:56:53;22.77;;;2.75;;
69057;SDS011;56128;37.534;-122.308;2024-03-23T13:59:20;19.00;;;2.78;;
69057;SDS011;56128;37.534;-122.308;2024-03-23T14:01:48;15.48;;;2.65;;
69057;SDS011;56128;37.534;-122.308;2024-03-23T14:04:15;28.80;;;3.60;;
69057;SDS011;56128;37.534;-122.308;2024-03-23T14:06:48;26.23;;;3.38;;
69057;SDS011;56128;37.534;-122.308;2024-03-23T14:09:14;16.67;;;2.70;;
69057;SDS011;56128;37.534;-122.308;2024-03-23T14:11:46;31.25;;;3.22;;
69057;SDS011;56128;37.534;-122.308;2024-03-23T14:14:12;23.45;;;3.10;;
69057;SDS011;56128;37.534;-122.308;2024-03-23T14:16:38;26.95;;;3.70;;
69057;SDS011;56128;37.534;-122.308;2024-03-23T14:19:04;26.92;;;3.08;;
69057;SDS011;56128;37.534;-122.308;2024-03-23T14:21:31;22.52;;;3.08;;
69057;SDS011;56128;37.534;-122.308;2024-03-23T14:23:57;29.25;;;3.85;;
69057;SDS011;56128;37.534;-122.308;2024-03-23T14:26:23;19.17;;;2.80;;
69057;SDS011;56128;37.534;-122.308;2024-03-23T14:28:50;27.25;;;2.80;;
69057;SDS011;56128;37.534;-122.308;2024-03-23T14:31:16;17.00;;;2.55;;
69057;SDS011;56128;37.534;-122.308;2024-03-23T14:33:42;18.20;;;2.45;;
69057;SDS011;56128;37.534;-122.308;2024-03-23T14:36:16;14.85;;;2.88;;
69057;SDS011;56128;37.534;-122.308;2024-03-23T14:38:48;18.25;;;2.78;;
69057;SDS011;56128;37.534;-122.308;2024-03-23T14:41:15;14.82;;;2.38;;
69057;SDS011;56128;37.534;-122.308;2024-03-23T14:43:41;13.70;;;2.17;;
69057;SDS011;56128;37.534;-122.308;2024-03-23T14:46:10;25.35;;;2.70;;
69057;SDS011;56128;37.534;-122.308;2024-03-23T14:48:41;16.83;;;2.80;;
69057;SDS011;56128;37.534;-122.308;2024-03-23T14:51:09;19.42;;;2.63;;
69057;SDS011;56128;37.534;-122.308;2024-03-23T14:53:37;16.85;;;2.63;;
69057;SDS011;56128;37.534;-122.308;2024-03-23T14:56:07;15.10;;;2.83;;
69057;SDS011;56128;37.534;-122.308;2024-03-23T14:58:40;15.60;;;2.67;;
69057;SDS011;56128;37.534;-122.308;2024-03-23T15:01:07;18.17;;;2.90;;
69057;SDS011;56128;37.534;-122.308;2024-03-23T15:03:35;18.52;;;2.72;;
69057;SDS011;56128;37.534;-122.308;2024-03-23T15:06:05;21.90;;;3.13;;
69057;SDS011;56128;37.534;-122.308;2024-03-23T15:08:32;22.58;;;3.45;;
69057;SDS011;56128;37.534;-122.308;2024-03-23T15:11:01;18.63;;;2.85;;